createdAt,value
2018-06-21T00:00:24.250Z,70.93
2018-06-21T00:05:27.537Z,87.73
2018-06-21T00:10:30.737Z,81.17
2018-06-21T00:15:33.964Z,53.83
2018-06-21T00:20:37.657Z,65.27
2018-06-21T00:25:41.237Z,54.73
2018-06-21T00:30:44.672Z,65.90
2018-06-21T00:35:47.852Z,43.40
2018-06-21T00:40:51.149Z,53.80
2018-06-21T00:45:54.465Z,45.10
2018-06-21T00:50:57.589Z,42.23
2018-06-21T00:56:12.773Z,33.17
2018-06-21T01:01:17.032Z,40.60
2018-06-21T01:06:20.235Z,42.40
2018-06-21T01:11:23.343Z,34.33
2018-06-21T01:16:26.733Z,34.70
2018-06-21T01:21:29.904Z,34.47
2018-06-21T01:26:33.858Z,24.80
2018-06-21T01:31:37.573Z,33.17
2018-06-21T01:36:40.728Z,24.97
2018-06-21T01:41:43.833Z,30.10
2018-06-21T01:46:47.175Z,16.53
2018-06-21T01:51:50.252Z,24.80
2018-06-21T01:56:53.383Z,27.93
2018-06-21T02:01:56.911Z,14.83
2018-06-21T02:06:59.828Z,10.20
2018-06-21T02:12:02.879Z,18.17
2018-06-21T02:17:06.011Z,13.73
2018-06-21T02:22:09.105Z,16.70
2018-06-21T02:27:12.176Z,8.80
2018-06-21T02:32:15.838Z,18.43
2018-06-21T02:37:18.763Z,17.03
2018-06-21T02:42:22.634Z,14.47
2018-06-21T02:47:26.157Z,11.70
2018-06-21T02:52:29.312Z,14.63
2018-06-21T02:57:32.635Z,14.53
2018-06-21T03:02:35.983Z,17.87
2018-06-21T03:07:39.067Z,15.97
2018-06-21T03:12:42.211Z,18.13
2018-06-21T03:17:45.581Z,19.93
2018-06-21T03:22:48.709Z,13.40
2018-06-21T03:27:51.749Z,13.90
2018-06-21T03:32:54.890Z,10.57
2018-06-21T03:37:58.966Z,12.70
2018-06-21T03:43:02.024Z,23.13
2018-06-21T03:48:05.293Z,11.37
2018-06-21T03:53:08.432Z,17.33
2018-06-21T03:58:11.632Z,12.90
2018-06-21T04:03:15.346Z,12.23
2018-06-21T04:08:18.650Z,24.83
2018-06-21T04:13:21.634Z,10.33
2018-06-21T04:18:41.208Z,10.90
2018-06-21T04:23:44.446Z,16.53
2018-06-21T04:28:47.588Z,15.07
2018-06-21T04:33:50.474Z,9.30
2018-06-21T04:38:53.697Z,9.30
2018-06-21T04:43:57.055Z,8.80
2018-06-21T04:49:00.467Z,5.33
2018-06-21T04:54:03.682Z,8.20
2018-06-21T04:59:06.701Z,11.50
2018-06-21T05:04:09.853Z,12.43
2018-06-21T05:09:12.853Z,14.83
2018-06-21T05:14:15.732Z,7.60
2018-06-21T05:19:18.915Z,20.00
2018-06-21T05:24:22.085Z,9.90
2018-06-21T05:29:24.992Z,12.27
2018-06-21T05:34:27.905Z,9.20
2018-06-21T05:39:30.791Z,13.63
2018-06-21T05:44:38.307Z,11.77
2018-06-21T05:49:41.964Z,6.60
2018-06-21T05:54:45.186Z,9.07
2018-06-21T05:59:48.075Z,19.53
2018-06-21T06:04:50.974Z,7.20
2018-06-21T06:09:53.860Z,22.83
2018-06-21T06:14:56.750Z,13.20
2018-06-21T06:20:00.484Z,26.50
2018-06-21T06:25:03.474Z,20.60
2018-06-21T06:30:06.988Z,12.57
2018-06-21T06:35:10.352Z,10.57
2018-06-21T06:40:13.268Z,10.10
2018-06-21T06:45:21.169Z,8.00
2018-06-21T06:50:24.938Z,14.77
2018-06-21T06:55:27.783Z,15.13
2018-06-21T07:00:30.993Z,7.20
2018-06-21T07:05:33.896Z,5.23
2018-06-21T07:10:36.820Z,15.73
2018-06-21T07:15:39.687Z,12.33
2018-06-21T07:20:42.760Z,6.03
2018-06-21T07:25:45.674Z,4.93
2018-06-21T07:30:48.829Z,7.23
2018-06-21T07:35:51.962Z,9.07
2018-06-21T07:40:54.871Z,5.40
2018-06-21T07:45:57.829Z,10.10
2018-06-21T07:51:07.534Z,13.00
2018-06-21T07:56:11.007Z,7.53
2018-06-21T08:01:13.901Z,11.80
2018-06-21T08:06:16.815Z,13.57
2018-06-21T08:11:19.661Z,6.93
2018-06-21T08:16:22.639Z,12.50
2018-06-21T08:21:25.787Z,12.37
2018-06-21T08:26:28.662Z,5.33
2018-06-21T08:31:31.832Z,13.80
2018-06-21T08:36:35.031Z,3.10
2018-06-21T08:41:38.087Z,8.73
2018-06-21T08:46:41.216Z,9.13
2018-06-21T08:51:44.276Z,12.77
2018-06-21T08:56:50.599Z,11.93
2018-06-21T09:01:53.674Z,13.23
2018-06-21T09:06:57.792Z,3.30
2018-06-21T09:12:00.695Z,6.50
2018-06-21T09:17:03.930Z,15.00
2018-06-21T09:22:07.055Z,34.17
2018-06-21T09:27:10.021Z,10.40
2018-06-21T09:32:12.934Z,4.07
2018-06-21T09:37:20.372Z,4.63
2018-06-21T09:42:28.856Z,9.30
2018-06-21T09:47:37.421Z,6.73
2018-06-21T09:52:40.913Z,7.57
2018-06-21T09:57:44.110Z,6.33
2018-06-21T10:02:47.070Z,6.00
2018-06-21T10:07:50.156Z,5.50
2018-06-21T10:12:53.101Z,2.67
2018-06-21T10:17:58.055Z,1.93
2018-06-21T10:23:02.581Z,4.13
2018-06-21T10:28:05.409Z,4.97
2018-06-21T10:33:08.233Z,6.53
2018-06-21T10:38:11.343Z,8.33
2018-06-21T10:43:14.147Z,10.97
2018-06-21T10:48:17.437Z,8.70
2018-06-21T10:53:20.505Z,15.67
2018-06-21T10:58:23.969Z,17.33
2018-06-21T11:03:27.189Z,22.23
2018-06-21T11:08:30.248Z,14.17
2018-06-21T11:13:33.150Z,12.67
2018-06-21T11:18:36.029Z,32.80
2018-06-21T11:23:38.972Z,13.40
2018-06-21T11:28:41.882Z,18.80
2018-06-21T11:33:45.596Z,10.67
2018-06-21T11:38:48.533Z,6.30
2018-06-21T11:43:51.432Z,27.67
2018-06-21T11:48:54.798Z,10.27
2018-06-21T11:53:57.831Z,16.47
2018-06-21T11:59:00.787Z,13.70
2018-06-21T12:04:04.111Z,15.03
2018-06-21T12:09:08.862Z,8.50
2018-06-21T12:14:11.779Z,6.73
2018-06-21T12:19:14.870Z,6.80
2018-06-21T12:24:17.941Z,6.07
2018-06-21T12:29:20.868Z,16.23
2018-06-21T12:34:24.098Z,29.33
2018-06-21T12:39:27.081Z,12.93
2018-06-21T12:44:30.177Z,14.30
2018-06-21T12:49:33.380Z,10.40
2018-06-21T12:54:36.512Z,7.30
2018-06-21T12:59:40.614Z,20.00
2018-06-21T13:04:43.661Z,10.57
2018-06-21T13:09:57.709Z,15.73
2018-06-21T13:15:00.781Z,8.30
2018-06-21T13:20:04.739Z,4.97
2018-06-21T13:25:07.691Z,6.40
2018-06-21T13:30:10.642Z,15.00
2018-06-21T13:35:14.664Z,9.37
2018-06-21T13:40:17.589Z,15.00
2018-06-21T13:45:20.468Z,4.83
2018-06-21T13:50:23.648Z,18.07
2018-06-21T13:55:27.007Z,8.47
2018-06-21T14:00:29.877Z,14.37
2018-06-21T14:05:33.106Z,4.37
2018-06-21T14:10:36.180Z,9.50
2018-06-21T14:15:39.097Z,10.37
2018-06-21T14:20:42.172Z,3.70
2018-06-21T14:25:46.444Z,11.27
2018-06-21T14:30:49.505Z,4.83
2018-06-21T14:35:52.733Z,6.30
2018-06-21T14:40:55.812Z,7.30
2018-06-21T14:45:58.924Z,6.60
2018-06-21T14:51:02.591Z,10.03
2018-06-21T14:56:05.693Z,5.43
2018-06-21T15:01:08.554Z,10.70
2018-06-21T15:06:11.716Z,13.90
2018-06-21T15:11:18.521Z,7.53
2018-06-21T15:16:22.780Z,8.47
2018-06-21T15:21:25.680Z,8.87
2018-06-21T15:26:28.699Z,12.27
2018-06-21T15:31:32.446Z,12.60
2018-06-21T15:36:35.437Z,5.10
2018-06-21T15:41:38.829Z,7.63
2018-06-21T15:46:42.242Z,14.50
2018-06-21T15:51:45.279Z,11.70
2018-06-21T15:56:48.610Z,7.20
2018-06-21T16:01:51.658Z,3.03
2018-06-21T16:06:54.721Z,9.60
2018-06-21T16:11:58.818Z,6.83
2018-06-21T16:17:03.826Z,16.87
2018-06-21T16:22:07.076Z,8.10
2018-06-21T16:27:10.478Z,12.27
2018-06-21T16:32:16.532Z,9.80
2018-06-21T16:37:19.728Z,14.00
2018-06-21T16:42:22.944Z,7.60
2018-06-21T16:47:25.820Z,9.67
2018-06-21T16:52:32.860Z,17.73
2018-06-21T16:57:36.081Z,20.70
2018-06-21T17:02:38.997Z,14.57
2018-06-21T17:07:42.744Z,15.33
2018-06-21T17:12:46.039Z,18.57
2018-06-21T17:17:49.180Z,6.30
2018-06-21T17:22:52.070Z,15.47
2018-06-21T17:27:55.591Z,12.50
2018-06-21T17:33:02.771Z,12.30
2018-06-21T17:38:05.856Z,11.40
2018-06-21T17:43:08.814Z,3.93
2018-06-21T17:48:12.638Z,9.43
2018-06-21T17:53:15.701Z,12.13
2018-06-21T17:58:18.953Z,8.20
2018-06-21T18:03:21.844Z,9.20
2018-06-21T18:08:24.795Z,13.73
2018-06-21T18:13:32.128Z,13.07
2018-06-21T18:18:35.880Z,13.00
2018-06-21T18:23:39.173Z,20.17
2018-06-21T18:28:42.617Z,13.23
2018-06-21T18:33:45.759Z,19.07
2018-06-21T18:38:49.143Z,20.77
2018-06-21T18:44:09.414Z,24.23
2018-06-21T18:49:19.859Z,14.87
2018-06-21T18:54:28.708Z,25.47
2018-06-21T18:59:34.133Z,25.07
2018-06-21T19:04:39.889Z,13.90
2018-06-21T19:09:48.691Z,10.30
2018-06-21T19:14:59.651Z,12.27
2018-06-21T19:20:05.225Z,18.57
2018-06-21T19:25:09.753Z,13.97
2018-06-21T19:30:14.556Z,24.30
2018-06-21T19:35:17.953Z,27.50
2018-06-21T19:40:21.198Z,20.87
2018-06-21T19:45:25.004Z,24.97
2018-06-21T19:50:28.324Z,29.03
2018-06-21T19:55:31.734Z,27.73
2018-06-21T20:00:35.192Z,23.63
2018-06-21T20:05:38.369Z,27.97
2018-06-21T20:10:42.563Z,25.83
2018-06-21T20:15:50.398Z,30.53
2018-06-21T20:20:53.492Z,38.60
2018-06-21T20:25:56.494Z,26.97
2018-06-21T20:30:59.752Z,30.53
2018-06-21T20:36:02.743Z,14.00
2018-06-21T20:41:06.031Z,39.63
2018-06-21T20:46:08.948Z,13.40
2018-06-21T20:51:11.980Z,23.37
2018-06-21T20:56:15.404Z,11.87
2018-06-21T21:01:18.852Z,27.17
2018-06-21T21:06:21.785Z,23.10
2018-06-21T21:11:24.716Z,22.83
2018-06-21T21:16:28.331Z,14.40
2018-06-21T21:21:31.442Z,34.47
2018-06-21T21:26:34.377Z,17.63
2018-06-21T21:31:37.569Z,33.20
2018-06-21T21:36:40.407Z,20.73
2018-06-21T21:41:43.302Z,27.73
2018-06-21T21:46:46.820Z,22.97
2018-06-21T21:51:50.136Z,31.77
2018-06-21T21:56:54.198Z,19.83
2018-06-21T22:02:02.021Z,29.90
2018-06-21T22:07:05.368Z,22.50
2018-06-21T22:12:10.693Z,23.00
2018-06-21T22:17:14.643Z,8.70
2018-06-21T22:22:17.689Z,35.80
2018-06-21T22:27:20.545Z,18.80
2018-06-21T22:32:23.737Z,26.10
2018-06-21T22:37:26.863Z,25.67
2018-06-21T22:42:30.197Z,27.70
2018-06-21T22:47:36.636Z,23.40
2018-06-21T22:52:40.516Z,20.07
2018-06-21T22:57:43.461Z,12.03
2018-06-21T23:02:54.495Z,19.90
2018-06-21T23:07:57.555Z,22.00
2018-06-21T23:13:00.997Z,23.83
2018-06-21T23:18:05.357Z,14.30
2018-06-21T23:23:08.977Z,12.83
2018-06-21T23:28:12.239Z,27.30
2018-06-21T23:33:16.198Z,32.90
2018-06-21T23:38:19.350Z,20.13
2018-06-21T23:43:22.585Z,13.10
2018-06-21T23:48:26.001Z,18.77
2018-06-21T23:53:29.618Z,16.97
2018-06-21T23:58:33.068Z,19.63
